createdAt,value
2023-04-21T00:00:02.658Z,7.50
2023-04-21T00:01:24.726Z,7.40
2023-04-21T00:02:48.221Z,7.40
2023-04-21T00:04:13.506Z,7.40
2023-04-21T00:05:36.013Z,7.40
2023-04-21T00:07:01.440Z,7.40
2023-04-21T00:08:23.470Z,7.40
2023-04-21T00:09:45.926Z,7.40
2023-04-21T00:11:09.293Z,7.40
2023-04-21T00:12:31.428Z,7.50
2023-04-21T00:13:53.471Z,7.50
2023-04-21T00:15:15.571Z,7.50
2023-04-21T00:16:37.816Z,7.40
2023-04-21T00:17:59.993Z,7.40
2023-04-21T00:19:23.768Z,7.40
2023-04-21T00:20:45.764Z,7.40
2023-04-21T00:22:12.073Z,7.40
2023-04-21T00:23:34.189Z,7.40
2023-04-21T00:24:56.287Z,7.40
2023-04-21T00:26:18.388Z,7.40
2023-04-21T00:27:40.491Z,7.40
2023-04-21T00:29:02.703Z,7.40
2023-04-21T00:30:24.823Z,7.40
2023-04-21T00:31:46.890Z,7.40
2023-04-21T00:33:09.101Z,7.40
2023-04-21T00:34:31.149Z,7.40
2023-04-21T00:35:54.542Z,7.30
2023-04-21T00:37:16.955Z,7.30
2023-04-21T00:38:38.958Z,7.30
2023-04-21T00:40:01.047Z,7.20
2023-04-21T00:41:23.698Z,7.20
2023-04-21T00:42:45.732Z,7.20
2023-04-21T00:44:09.422Z,7.20
2023-04-21T00:45:31.485Z,7.10
2023-04-21T00:46:53.584Z,7.10
2023-04-21T00:48:15.704Z,7.00
2023-04-21T00:49:37.832Z,7.00
2023-04-21T00:50:59.948Z,7.00
2023-04-21T00:52:22.081Z,7.00
2023-04-21T00:53:44.995Z,7.00
2023-04-21T00:55:07.648Z,6.90
2023-04-21T00:56:32.166Z,6.90
2023-04-21T00:57:56.356Z,6.90
2023-04-21T00:59:18.569Z,6.90
2023-04-21T01:00:40.856Z,6.90
2023-04-21T01:02:03.359Z,6.90
2023-04-21T01:03:25.603Z,6.90
2023-04-21T01:04:48.225Z,6.90
2023-04-21T01:06:10.596Z,6.90
2023-04-21T01:07:32.886Z,7.00
2023-04-21T01:08:55.738Z,7.00
2023-04-21T01:10:17.880Z,7.00
2023-04-21T01:11:40.036Z,7.00
2023-04-21T01:13:02.080Z,7.00
2023-04-21T01:14:25.725Z,7.00
2023-04-21T01:15:48.302Z,7.00
2023-04-21T01:17:10.563Z,7.10
2023-04-21T01:18:32.596Z,7.10
2023-04-21T01:19:56.552Z,7.00
2023-04-21T01:21:19.387Z,7.10
2023-04-21T01:22:44.851Z,7.10
2023-04-21T01:24:07.212Z,7.00
2023-04-21T01:25:29.252Z,6.90
2023-04-21T01:26:51.402Z,6.90
2023-04-21T01:28:13.808Z,6.90
2023-04-21T01:29:36.176Z,6.90
2023-04-21T01:30:58.243Z,6.90
2023-04-21T01:32:23.919Z,6.90
2023-04-21T01:33:46.233Z,6.80
2023-04-21T01:35:08.725Z,6.90
2023-04-21T01:36:31.432Z,6.80
2023-04-21T01:37:53.569Z,6.80
2023-04-21T01:39:15.654Z,6.80
2023-04-21T01:40:37.778Z,6.90
2023-04-21T01:42:00.756Z,6.90
2023-04-21T01:43:24.907Z,6.90
2023-04-21T01:44:47.285Z,7.00
2023-04-21T01:46:09.522Z,7.00
2023-04-21T01:47:31.625Z,7.00
2023-04-21T01:48:53.802Z,7.00
2023-04-21T01:50:15.941Z,7.00
2023-04-21T01:51:38.135Z,7.00
2023-04-21T01:53:00.176Z,7.00
2023-04-21T01:54:22.205Z,7.00
2023-04-21T01:55:44.338Z,7.00
2023-04-21T01:57:07.084Z,7.10
2023-04-21T01:58:29.306Z,7.10
2023-04-21T01:59:51.383Z,7.10
2023-04-21T02:01:13.448Z,7.10
2023-04-21T02:02:35.633Z,7.10
2023-04-21T02:03:57.997Z,7.10
2023-04-21T02:05:20.285Z,7.10
2023-04-21T02:06:42.390Z,7.10
2023-04-21T02:08:05.033Z,7.10
2023-04-21T02:09:27.332Z,7.00
2023-04-21T02:10:49.426Z,7.10
2023-04-21T02:12:12.156Z,7.00
2023-04-21T02:13:34.154Z,7.00
2023-04-21T02:14:56.188Z,7.10
2023-04-21T02:16:20.339Z,7.00
2023-04-21T02:17:44.770Z,7.00
2023-04-21T02:19:07.500Z,7.00
2023-04-21T02:20:29.662Z,7.00
2023-04-21T02:21:51.738Z,7.00
2023-04-21T02:23:13.773Z,7.00
2023-04-21T02:24:35.954Z,7.00
2023-04-21T02:25:58.033Z,7.00
2023-04-21T02:27:20.117Z,7.00
2023-04-21T02:28:42.206Z,7.00
2023-04-21T02:30:04.834Z,7.00
2023-04-21T02:31:27.030Z,7.00
2023-04-21T02:32:49.201Z,7.00
2023-04-21T02:34:11.349Z,7.00
2023-04-21T02:35:33.867Z,7.00
2023-04-21T02:36:56.077Z,7.00
2023-04-21T02:38:18.161Z,6.90
2023-04-21T02:39:40.185Z,6.90
2023-04-21T02:41:02.351Z,6.90
2023-04-21T02:42:24.416Z,6.90
2023-04-21T02:43:46.502Z,6.90
2023-04-21T02:45:09.402Z,6.90
2023-04-21T02:46:31.586Z,6.90
2023-04-21T02:47:53.651Z,6.90
2023-04-21T02:49:15.844Z,6.90
2023-04-21T02:50:38.168Z,6.90
2023-04-21T02:52:00.177Z,6.90
2023-04-21T02:53:22.345Z,6.90
2023-04-21T02:54:44.423Z,6.90
2023-04-21T02:56:08.770Z,6.90
2023-04-21T02:57:30.851Z,6.80
2023-04-21T02:58:52.850Z,6.90
2023-04-21T03:00:15.442Z,6.90
2023-04-21T03:01:37.509Z,6.90
2023-04-21T03:02:59.765Z,6.90
2023-04-21T03:04:22.102Z,6.90
2023-04-21T03:05:44.282Z,6.90
2023-04-21T03:07:11.305Z,6.90
2023-04-21T03:08:33.489Z,6.90
2023-04-21T03:09:55.780Z,6.90
2023-04-21T03:11:17.847Z,6.90
2023-04-21T03:12:39.892Z,6.90
2023-04-21T03:14:01.940Z,6.90
2023-04-21T03:15:24.020Z,6.90
2023-04-21T03:16:47.346Z,6.80
2023-04-21T03:18:09.485Z,6.90
2023-04-21T03:19:31.614Z,6.80
2023-04-21T03:20:59.887Z,6.80
2023-04-21T03:22:22.143Z,6.90
2023-04-21T03:23:44.648Z,6.90
2023-04-21T03:25:07.581Z,6.90
2023-04-21T03:26:29.827Z,6.90
2023-04-21T03:27:51.884Z,6.90
2023-04-21T03:29:14.194Z,6.90
2023-04-21T03:30:36.212Z,6.90
2023-04-21T03:31:58.314Z,6.90
2023-04-21T03:33:20.518Z,6.90
2023-04-21T03:34:42.593Z,6.90
2023-04-21T03:36:04.915Z,6.90
2023-04-21T03:37:27.207Z,6.90
2023-04-21T03:38:49.272Z,6.90
2023-04-21T03:40:11.974Z,6.90
2023-04-21T03:41:34.279Z,6.90
2023-04-21T03:42:56.388Z,6.90
2023-04-21T03:44:18.440Z,6.90
2023-04-21T03:45:40.603Z,6.90
2023-04-21T03:47:04.441Z,6.90
2023-04-21T03:48:28.655Z,7.00
2023-04-21T03:49:50.753Z,6.90
2023-04-21T03:51:13.173Z,6.90
2023-04-21T03:52:35.354Z,6.90
2023-04-21T03:53:57.445Z,6.90
2023-04-21T03:55:19.538Z,7.00
2023-04-21T03:56:41.735Z,6.90
2023-04-21T03:58:03.908Z,6.90
2023-04-21T03:59:26.089Z,6.90
2023-04-21T04:00:48.212Z,6.90
2023-04-21T04:02:10.393Z,6.90
2023-04-21T04:03:32.762Z,6.90
2023-04-21T04:04:54.965Z,6.90
2023-04-21T04:06:17.115Z,6.90
2023-04-21T04:07:39.163Z,6.90
2023-04-21T04:09:04.533Z,7.00
2023-04-21T04:10:26.638Z,7.00
2023-04-21T04:11:48.739Z,7.00
2023-04-21T04:13:11.418Z,7.00
2023-04-21T04:14:33.491Z,7.00
2023-04-21T04:15:55.597Z,7.00
2023-04-21T04:17:17.691Z,7.10
2023-04-21T04:18:39.892Z,7.10
2023-04-21T04:20:04.522Z,7.10
2023-04-21T04:21:27.468Z,7.10
2023-04-21T04:22:49.710Z,7.10
2023-04-21T04:24:12.011Z,7.20
2023-04-21T04:25:34.056Z,7.20
2023-04-21T04:26:57.886Z,7.30
2023-04-21T04:28:19.946Z,7.50
2023-04-21T04:29:42.097Z,7.80
2023-04-21T04:31:04.238Z,8.10
2023-04-21T04:32:29.368Z,8.30
2023-04-21T04:33:55.585Z,8.60
2023-04-21T04:35:18.021Z,8.90
2023-04-21T04:36:40.122Z,9.10
2023-04-21T04:38:02.180Z,9.30
2023-04-21T04:39:25.684Z,9.30
2023-04-21T04:40:54.181Z,9.50
2023-04-21T04:42:16.528Z,9.70
2023-04-21T04:43:41.552Z,9.90
2023-04-21T04:45:03.999Z,10.00
2023-04-21T04:46:28.325Z,10.10
2023-04-21T04:47:50.603Z,10.20
2023-04-21T04:49:12.645Z,10.40
2023-04-21T04:50:34.699Z,10.50
2023-04-21T04:51:56.809Z,10.70
2023-04-21T04:53:18.920Z,10.80
2023-04-21T04:54:41.069Z,10.90
2023-04-21T04:56:03.259Z,11.10
2023-04-21T04:57:25.377Z,11.00
2023-04-21T04:58:47.501Z,11.10
2023-04-21T05:00:11.398Z,11.20
2023-04-21T05:01:33.657Z,11.50
2023-04-21T05:02:56.164Z,11.60
2023-04-21T05:04:18.741Z,11.70
2023-04-21T05:05:40.956Z,11.80
2023-04-21T05:07:03.394Z,11.90
2023-04-21T05:08:25.671Z,11.90
2023-04-21T05:09:47.823Z,12.10
2023-04-21T05:11:10.007Z,12.10
2023-04-21T05:12:32.280Z,12.10
2023-04-21T05:13:54.400Z,12.10
2023-04-21T05:15:17.866Z,12.10
2023-04-21T05:16:40.363Z,12.10
2023-04-21T05:18:02.721Z,12.00
2023-04-21T05:19:25.994Z,12.00
2023-04-21T05:20:48.082Z,12.00
2023-04-21T05:22:10.196Z,11.90
2023-04-21T05:23:32.267Z,11.90
2023-04-21T05:24:54.327Z,12.10
2023-04-21T05:26:16.383Z,12.20
2023-04-21T05:27:38.569Z,12.30
2023-04-21T05:29:00.689Z,12.50
2023-04-21T05:30:22.847Z,12.50
2023-04-21T05:31:45.048Z,12.50
2023-04-21T05:33:07.395Z,12.50
2023-04-21T05:34:29.625Z,12.40
2023-04-21T05:35:51.825Z,12.20
2023-04-21T05:37:14.069Z,12.10
2023-04-21T05:38:39.399Z,12.00
2023-04-21T05:40:01.666Z,11.90
2023-04-21T05:41:23.941Z,11.70
2023-04-21T05:42:46.438Z,11.70
2023-04-21T05:44:08.551Z,11.60
2023-04-21T05:45:30.671Z,11.70
2023-04-21T05:46:52.818Z,11.90
2023-04-21T05:48:15.240Z,11.90
2023-04-21T05:49:37.337Z,12.00
2023-04-21T05:51:12.043Z,12.10
2023-04-21T05:52:35.011Z,12.00
2023-04-21T05:53:57.106Z,11.90
2023-04-21T05:55:19.208Z,11.80
2023-04-21T05:56:41.351Z,11.70
2023-04-21T05:58:04.181Z,11.60
2023-04-21T05:59:26.545Z,11.60
2023-04-21T06:00:49.226Z,11.50
2023-04-21T06:02:12.765Z,11.50
2023-04-21T06:03:35.277Z,11.20
2023-04-21T06:04:57.742Z,11.00
2023-04-21T06:06:20.746Z,10.80
2023-04-21T06:07:42.912Z,10.70
2023-04-21T06:09:05.611Z,10.50
2023-04-21T06:10:27.911Z,10.30
2023-04-21T06:11:50.898Z,10.00
2023-04-21T06:13:13.035Z,9.80
2023-04-21T06:14:35.291Z,9.50
2023-04-21T06:15:57.504Z,9.40
2023-04-21T06:17:19.627Z,9.30
2023-04-21T06:18:41.736Z,9.20
2023-04-21T06:20:04.146Z,9.10
2023-04-21T06:21:26.283Z,9.10
2023-04-21T06:22:48.402Z,9.10
2023-04-21T06:24:10.458Z,9.00
2023-04-21T06:25:32.534Z,9.00
2023-04-21T06:26:54.600Z,8.90
2023-04-21T06:28:16.627Z,8.90
2023-04-21T06:29:39.527Z,9.00
2023-04-21T06:31:02.623Z,9.00
2023-04-21T06:32:24.800Z,9.00
2023-04-21T06:33:46.899Z,8.90
2023-04-21T06:35:09.368Z,8.90
2023-04-21T06:36:31.666Z,9.00
2023-04-21T06:37:53.777Z,9.10
2023-04-21T06:39:15.932Z,9.10
2023-04-21T06:40:38.202Z,9.10
2023-04-21T06:42:00.831Z,9.20
2023-04-21T06:43:22.903Z,9.20
2023-04-21T06:44:44.959Z,9.30
2023-04-21T06:46:07.237Z,9.30
2023-04-21T06:47:29.306Z,9.30
2023-04-21T06:48:51.326Z,9.30
2023-04-21T06:50:13.375Z,9.30
2023-04-21T06:51:35.700Z,9.30
2023-04-21T06:52:57.828Z,9.30
2023-04-21T06:54:19.887Z,9.30
2023-04-21T06:55:42.382Z,9.30
2023-04-21T06:57:04.570Z,9.30
2023-04-21T06:58:26.593Z,9.30
2023-04-21T06:59:48.687Z,9.30
2023-04-21T07:01:10.852Z,9.40
2023-04-21T07:02:33.110Z,9.40
2023-04-21T07:03:55.536Z,9.40
2023-04-21T07:05:17.803Z,9.40
2023-04-21T07:06:39.844Z,9.40
2023-04-21T07:08:02.053Z,9.40
2023-04-21T07:09:24.302Z,9.40
2023-04-21T07:10:46.400Z,9.40
2023-04-21T07:12:08.580Z,9.40
2023-04-21T07:13:30.856Z,9.50
2023-04-21T07:14:52.955Z,9.50
2023-04-21T07:16:15.124Z,9.60
2023-04-21T07:17:37.297Z,9.60
2023-04-21T07:18:59.514Z,9.70
2023-04-21T07:20:21.570Z,9.80
2023-04-21T07:21:43.621Z,9.80
2023-04-21T07:23:05.671Z,9.80
2023-04-21T07:24:27.764Z,9.90
2023-04-21T07:25:49.856Z,9.90
2023-04-21T07:27:11.941Z,10.00
2023-04-21T07:28:34.050Z,10.00
2023-04-21T07:29:56.108Z,10.00
2023-04-21T07:31:18.343Z,10.10
2023-04-21T07:32:40.466Z,10.20
2023-04-21T07:34:02.584Z,10.20
2023-04-21T07:35:25.664Z,10.30
2023-04-21T07:36:47.848Z,10.20
2023-04-21T07:38:09.972Z,10.20
2023-04-21T07:39:32.054Z,10.10
2023-04-21T07:40:54.749Z,10.00
2023-04-21T07:42:20.049Z,10.00
2023-04-21T07:43:42.260Z,10.00
2023-04-21T07:45:05.210Z,10.00
2023-04-21T07:46:30.466Z,10.10
2023-04-21T07:47:52.810Z,10.10
2023-04-21T07:49:15.545Z,10.20
2023-04-21T07:50:37.684Z,10.20
2023-04-21T07:51:59.954Z,10.20
2023-04-21T07:53:22.115Z,10.20
2023-04-21T07:54:44.373Z,10.20
2023-04-21T07:56:07.447Z,10.20
2023-04-21T07:57:31.902Z,10.20
2023-04-21T07:58:55.210Z,10.30
2023-04-21T08:00:17.707Z,10.30
2023-04-21T08:01:39.864Z,10.30
2023-04-21T08:03:02.071Z,10.30
2023-04-21T08:04:24.516Z,10.30
2023-04-21T08:05:47.736Z,10.30
2023-04-21T08:07:10.236Z,10.30
2023-04-21T08:08:32.765Z,10.40
2023-04-21T08:09:54.959Z,10.50
2023-04-21T08:11:17.215Z,10.50
2023-04-21T08:12:39.621Z,10.60
2023-04-21T08:14:02.301Z,10.70
2023-04-21T08:15:24.567Z,10.70
2023-04-21T08:16:46.991Z,10.70
2023-04-21T08:18:09.581Z,10.70
2023-04-21T08:19:31.742Z,10.70
2023-04-21T08:20:55.702Z,10.70
2023-04-21T08:22:17.852Z,10.70
2023-04-21T08:23:39.932Z,10.80
2023-04-21T08:25:03.181Z,10.80
2023-04-21T08:26:25.641Z,10.90
2023-04-21T08:27:47.713Z,10.90
2023-04-21T08:29:10.787Z,10.80
2023-04-21T08:30:33.414Z,10.90
2023-04-21T08:31:55.756Z,10.90
2023-04-21T08:33:17.917Z,10.90
2023-04-21T08:34:40.284Z,10.90
2023-04-21T08:36:09.886Z,10.90
2023-04-21T08:37:38.980Z,10.90
2023-04-21T08:39:01.529Z,10.90
2023-04-21T08:40:32.933Z,11.00
2023-04-21T08:41:56.448Z,11.00
2023-04-21T08:43:19.455Z,11.10
2023-04-21T08:44:41.723Z,11.30
2023-04-21T08:46:08.043Z,11.20
2023-04-21T08:47:32.078Z,11.20
2023-04-21T08:48:55.453Z,11.20
2023-04-21T08:50:17.745Z,11.30
2023-04-21T08:51:40.694Z,11.20
2023-04-21T08:53:03.055Z,11.20
2023-04-21T08:54:25.200Z,11.00
2023-04-21T08:56:03.148Z,10.90
2023-04-21T08:57:32.547Z,10.90
2023-04-21T08:58:56.281Z,10.90
2023-04-21T09:00:18.564Z,11.00
2023-04-21T09:02:18.979Z,11.00
2023-04-21T09:03:41.551Z,11.20
2023-04-21T09:05:04.063Z,11.20
2023-04-21T09:06:43.320Z,11.30
2023-04-21T09:08:13.447Z,11.30
2023-04-21T09:09:56.428Z,11.30
2023-04-21T09:11:19.656Z,11.40
2023-04-21T09:12:41.748Z,11.40
2023-04-21T09:14:03.826Z,11.30
2023-04-21T09:15:25.863Z,11.30
2023-04-21T09:17:00.436Z,11.20
2023-04-21T09:18:24.537Z,11.20
2023-04-21T09:19:46.826Z,11.10
2023-04-21T09:21:12.849Z,11.20
2023-04-21T09:22:38.298Z,11.10
2023-04-21T09:24:06.647Z,11.20
2023-04-21T09:25:31.605Z,11.20
2023-04-21T09:26:54.365Z,11.30
2023-04-21T09:28:16.481Z,11.40
2023-04-21T09:29:38.619Z,11.50
2023-04-21T09:31:00.898Z,11.60
2023-04-21T09:32:22.982Z,11.60
2023-04-21T09:35:14.601Z,11.40
2023-04-21T09:36:37.232Z,11.40
2023-04-21T09:38:01.574Z,11.40
2023-04-21T09:39:40.076Z,11.50
2023-04-21T09:41:05.288Z,11.50
2023-04-21T09:42:31.502Z,11.50
2023-04-21T09:43:53.785Z,11.30
2023-04-21T09:45:32.857Z,11.20
2023-04-21T09:47:04.491Z,11.10
2023-04-21T09:48:31.952Z,11.00
2023-04-21T09:49:55.626Z,11.00
2023-04-21T09:52:43.673Z,11.10
2023-04-21T09:55:49.269Z,11.20
2023-04-21T09:57:14.769Z,11.30
2023-04-21T09:58:46.656Z,11.20
2023-04-21T10:00:12.109Z,11.20
2023-04-21T10:01:38.803Z,11.30
2023-04-21T10:03:05.820Z,11.40
2023-04-21T10:04:32.673Z,11.40
2023-04-21T10:05:55.868Z,11.40
2023-04-21T10:07:18.027Z,11.40
2023-04-21T10:08:40.899Z,11.50
2023-04-21T10:10:03.564Z,11.60
2023-04-21T10:11:26.292Z,11.60
2023-04-21T10:12:48.868Z,11.50
2023-04-21T10:14:11.130Z,11.60
2023-04-21T10:15:39.562Z,11.70
2023-04-21T10:17:07.844Z,11.60
2023-04-21T10:18:30.142Z,11.60
2023-04-21T10:19:55.781Z,11.70
2023-04-21T10:21:22.156Z,11.60
2023-04-21T10:22:44.345Z,11.60
2023-04-21T10:24:07.095Z,11.60
2023-04-21T10:25:30.007Z,11.70
2023-04-21T10:26:54.640Z,11.90
2023-04-21T10:28:18.522Z,12.00
2023-04-21T10:29:55.244Z,12.10
2023-04-21T10:31:23.138Z,12.10
2023-04-21T10:32:46.299Z,12.10
2023-04-21T10:34:08.359Z,11.90
2023-04-21T10:36:00.954Z,11.90
2023-04-21T10:37:22.969Z,11.90
2023-04-21T10:38:54.762Z,11.90
2023-04-21T10:42:26.241Z,12.00
2023-04-21T10:43:50.999Z,12.00
2023-04-21T10:45:13.479Z,12.00
2023-04-21T10:46:37.078Z,12.10
2023-04-21T10:48:02.492Z,12.10
2023-04-21T10:49:30.271Z,12.10
2023-04-21T10:50:52.439Z,12.20
2023-04-21T10:52:16.436Z,12.40
2023-04-21T10:53:47.320Z,12.40
2023-04-21T10:55:12.313Z,12.40
2023-04-21T10:56:35.184Z,12.40
2023-04-21T10:58:02.797Z,12.50
2023-04-21T10:59:28.859Z,12.50
2023-04-21T11:00:55.660Z,12.60
2023-04-21T11:02:18.961Z,12.70
2023-04-21T11:03:41.476Z,12.80
2023-04-21T11:05:05.319Z,12.80
2023-04-21T11:06:27.377Z,12.70
2023-04-21T11:07:49.433Z,12.70
2023-04-21T11:09:11.455Z,12.80
2023-04-21T11:10:53.299Z,12.90
2023-04-21T11:12:18.166Z,12.90
2023-04-21T11:13:41.398Z,13.00
2023-04-21T11:15:07.386Z,13.10
2023-04-21T11:16:29.556Z,13.20
2023-04-21T11:17:51.686Z,13.30
2023-04-21T11:19:15.794Z,13.20
2023-04-21T11:20:42.269Z,13.10
2023-04-21T11:22:05.163Z,12.90
2023-04-21T11:23:27.156Z,12.80
2023-04-21T11:24:51.222Z,12.80
2023-04-21T11:26:13.268Z,12.70
2023-04-21T11:27:35.466Z,12.50
2023-04-21T11:29:01.010Z,12.50
2023-04-21T11:30:34.215Z,12.60
2023-04-21T11:31:56.774Z,12.60
2023-04-21T11:33:18.937Z,12.60
2023-04-21T11:34:41.995Z,12.60
2023-04-21T11:36:06.735Z,12.60
2023-04-21T11:37:28.966Z,12.70
2023-04-21T11:38:51.136Z,12.50
2023-04-21T11:40:13.230Z,12.50
2023-04-21T11:41:36.161Z,12.50
2023-04-21T11:42:58.378Z,12.50
2023-04-21T11:44:43.134Z,12.50
2023-04-21T11:46:19.302Z,12.40
2023-04-21T11:47:41.351Z,12.30
2023-04-21T11:49:08.221Z,12.30
2023-04-21T11:50:34.859Z,12.50
2023-04-21T11:51:57.006Z,12.60
2023-04-21T11:53:19.710Z,12.70
2023-04-21T11:54:41.834Z,12.90
2023-04-21T11:56:04.020Z,13.00
2023-04-21T11:57:27.775Z,13.10
2023-04-21T11:58:51.850Z,13.20
2023-04-21T12:00:15.425Z,13.30
2023-04-21T12:01:48.583Z,13.40
2023-04-21T12:03:10.921Z,13.40
2023-04-21T12:04:34.568Z,13.50
2023-04-21T12:05:58.362Z,13.60
2023-04-21T12:07:22.904Z,13.50
2023-04-21T12:08:44.916Z,13.30
2023-04-21T12:10:15.402Z,13.20
2023-04-21T12:11:37.445Z,13.20
2023-04-21T12:12:59.600Z,13.30
2023-04-21T12:14:23.663Z,13.30
2023-04-21T12:15:46.121Z,13.20
2023-04-21T12:17:08.212Z,13.00
2023-04-21T12:18:32.746Z,12.90
2023-04-21T12:19:55.408Z,12.80
2023-04-21T12:21:17.593Z,12.80
2023-04-21T12:22:39.648Z,12.80
2023-04-21T12:24:02.023Z,13.00
2023-04-21T12:25:25.336Z,13.10
2023-04-21T12:26:47.882Z,13.20
2023-04-21T12:28:09.896Z,13.30
2023-04-21T12:29:32.388Z,13.30
2023-04-21T12:30:54.510Z,13.50
2023-04-21T12:32:16.936Z,13.50
2023-04-21T12:33:39.907Z,13.70
2023-04-21T12:35:02.302Z,13.90
2023-04-21T12:36:24.480Z,14.00
2023-04-21T12:37:46.684Z,14.10
2023-04-21T12:39:10.056Z,14.10
2023-04-21T12:40:32.633Z,13.90
2023-04-21T12:41:54.672Z,13.80
2023-04-21T12:43:16.746Z,13.90
2023-04-21T12:44:40.104Z,13.90
2023-04-21T12:46:02.338Z,14.00
2023-04-21T12:47:24.883Z,14.00
2023-04-21T12:48:48.742Z,14.00
2023-04-21T12:50:11.372Z,14.00
2023-04-21T12:51:34.121Z,14.20
2023-04-21T12:52:56.333Z,14.20
2023-04-21T12:54:18.743Z,14.30
2023-04-21T12:55:46.948Z,14.20
2023-04-21T12:57:15.933Z,14.20
2023-04-21T12:58:37.958Z,14.20
2023-04-21T13:00:00.788Z,14.30
2023-04-21T13:01:23.188Z,14.20
2023-04-21T13:02:45.701Z,14.20
2023-04-21T13:04:08.335Z,14.20
2023-04-21T13:05:31.299Z,14.10
2023-04-21T13:06:53.401Z,14.00
2023-04-21T13:08:15.508Z,14.10
2023-04-21T13:09:38.397Z,14.20
2023-04-21T13:11:01.042Z,14.20
2023-04-21T13:12:23.315Z,14.30
2023-04-21T13:13:45.397Z,14.40
2023-04-21T13:15:08.152Z,14.50
2023-04-21T13:16:30.913Z,14.50
2023-04-21T13:17:52.927Z,14.40
2023-04-21T13:19:14.989Z,14.30
2023-04-21T13:20:37.126Z,14.10
2023-04-21T13:21:59.130Z,14.00
2023-04-21T13:23:21.137Z,14.00
2023-04-21T13:24:43.300Z,14.10
2023-04-21T13:26:05.509Z,14.10
2023-04-21T13:27:27.558Z,14.20
2023-04-21T13:28:50.286Z,14.30
2023-04-21T13:30:13.584Z,14.30
2023-04-21T13:31:35.781Z,14.40
2023-04-21T13:32:57.961Z,14.40
2023-04-21T13:34:20.048Z,14.40
2023-04-21T13:35:42.326Z,14.40
2023-04-21T13:37:04.517Z,14.40
2023-04-21T13:38:26.833Z,14.40
2023-04-21T13:39:48.927Z,14.40
2023-04-21T13:41:11.242Z,14.40
2023-04-21T13:42:33.789Z,14.40
2023-04-21T13:43:56.027Z,14.50
2023-04-21T13:45:18.211Z,14.40
2023-04-21T13:46:40.387Z,14.20
2023-04-21T13:48:02.603Z,14.20
2023-04-21T13:49:24.780Z,14.20
2023-04-21T13:50:47.125Z,14.30
2023-04-21T13:52:09.241Z,14.30
2023-04-21T13:53:31.418Z,14.40
2023-04-21T13:54:54.184Z,14.40
2023-04-21T13:56:16.852Z,14.40
2023-04-21T13:57:38.992Z,14.40
2023-04-21T13:59:01.025Z,14.40
2023-04-21T14:00:23.276Z,14.40
2023-04-21T14:01:45.535Z,14.40
2023-04-21T14:03:09.734Z,14.40
2023-04-21T14:04:32.335Z,14.40
2023-04-21T14:05:56.174Z,14.40
2023-04-21T14:07:20.281Z,14.30
2023-04-21T14:08:42.349Z,14.20
2023-04-21T14:10:04.668Z,14.00
2023-04-21T14:11:26.798Z,13.80
2023-04-21T14:12:49.123Z,13.70
2023-04-21T14:14:11.230Z,13.70
2023-04-21T14:15:33.494Z,13.70
2023-04-21T14:16:55.678Z,13.70
2023-04-21T14:18:17.906Z,13.70
2023-04-21T14:19:40.038Z,13.70
2023-04-21T14:21:02.157Z,13.70
2023-04-21T14:22:24.345Z,13.60
2023-04-21T14:23:46.604Z,13.50
2023-04-21T14:25:09.034Z,13.50
2023-04-21T14:26:31.455Z,13.50
2023-04-21T14:27:53.772Z,13.50
2023-04-21T14:29:15.975Z,13.50
2023-04-21T14:30:38.589Z,13.50
2023-04-21T14:32:00.773Z,13.50
2023-04-21T14:33:22.882Z,13.50
2023-04-21T14:34:45.234Z,13.50
2023-04-21T14:36:07.511Z,13.50
2023-04-21T14:37:29.717Z,13.40
2023-04-21T14:38:51.923Z,13.50
2023-04-21T14:40:13.963Z,13.50
2023-04-21T14:41:36.054Z,13.40
2023-04-21T14:42:58.112Z,13.40
2023-04-21T14:44:20.253Z,13.40
2023-04-21T14:45:42.961Z,13.50
2023-04-21T14:47:09.957Z,13.50
2023-04-21T14:48:33.214Z,13.60
2023-04-21T14:49:56.019Z,13.70
2023-04-21T14:51:18.793Z,13.70
2023-04-21T14:52:41.453Z,13.80
2023-04-21T14:54:03.787Z,13.80
2023-04-21T14:55:25.970Z,13.80
2023-04-21T14:56:48.044Z,13.70
2023-04-21T14:58:10.303Z,13.60
2023-04-21T14:59:32.632Z,13.50
2023-04-21T15:00:55.002Z,13.50
2023-04-21T15:02:17.535Z,13.40
2023-04-21T15:03:40.550Z,13.30
2023-04-21T15:05:03.809Z,13.30
2023-04-21T15:06:28.145Z,13.30
2023-04-21T15:07:50.351Z,13.10
2023-04-21T15:09:14.052Z,13.00
2023-04-21T15:10:36.402Z,13.00
2023-04-21T15:11:59.243Z,13.00
2023-04-21T15:13:23.482Z,13.00
2023-04-21T15:14:46.097Z,13.00
2023-04-21T15:16:08.268Z,13.00
2023-04-21T15:17:30.748Z,13.00
2023-04-21T15:18:53.144Z,13.00
2023-04-21T15:20:15.375Z,13.00
2023-04-21T15:21:37.890Z,13.00
2023-04-21T15:23:00.199Z,13.00
2023-04-21T15:24:22.431Z,13.00
2023-04-21T15:25:44.709Z,13.10
2023-04-21T15:27:06.935Z,13.10
2023-04-21T15:28:29.271Z,13.10
2023-04-21T15:29:51.572Z,13.10
2023-04-21T15:31:13.718Z,13.00
2023-04-21T15:32:35.899Z,13.00
2023-04-21T15:33:58.276Z,13.00
2023-04-21T15:35:20.708Z,13.00
2023-04-21T15:36:42.833Z,12.90
2023-04-21T15:38:06.326Z,12.80
2023-04-21T15:39:28.502Z,12.80
2023-04-21T15:41:00.833Z,12.80
2023-04-21T15:42:23.908Z,12.80
2023-04-21T15:43:46.247Z,12.70
2023-04-21T15:45:09.166Z,12.70
2023-04-21T15:46:31.446Z,12.60
2023-04-21T15:47:53.654Z,12.60
2023-04-21T15:49:15.957Z,12.70
2023-04-21T15:50:38.281Z,12.70
2023-04-21T15:52:03.363Z,12.70
2023-04-21T15:53:26.378Z,12.60
2023-04-21T15:54:49.415Z,12.60
2023-04-21T15:56:11.872Z,12.50
2023-04-21T15:57:33.982Z,12.50
2023-04-21T15:58:56.950Z,12.50
2023-04-21T16:00:19.444Z,12.50
2023-04-21T16:01:42.022Z,12.40
2023-04-21T16:03:05.593Z,12.40
2023-04-21T16:04:28.279Z,12.30
2023-04-21T16:05:51.014Z,12.30
2023-04-21T16:07:13.383Z,12.30
2023-04-21T16:08:35.565Z,12.30
2023-04-21T16:09:57.911Z,12.30
2023-04-21T16:11:20.274Z,12.30
2023-04-21T16:12:44.431Z,12.30
2023-04-21T16:14:06.648Z,12.30
2023-04-21T16:15:29.065Z,12.30
2023-04-21T16:16:51.550Z,12.30
2023-04-21T16:18:13.789Z,12.30
2023-04-21T16:19:35.927Z,12.20
2023-04-21T16:20:58.243Z,12.20
2023-04-21T16:22:20.710Z,12.20
2023-04-21T16:23:42.847Z,12.10
2023-04-21T16:25:05.625Z,12.10
2023-04-21T16:26:27.735Z,12.10
2023-04-21T16:27:49.859Z,12.00
2023-04-21T16:29:11.991Z,12.00
2023-04-21T16:30:35.226Z,12.00
2023-04-21T16:31:57.337Z,11.90
2023-04-21T16:33:19.565Z,11.90
2023-04-21T16:34:42.115Z,11.80
2023-04-21T16:36:05.029Z,11.80
2023-04-21T16:37:27.296Z,11.80
2023-04-21T16:38:49.363Z,11.80
2023-04-21T16:40:11.840Z,11.70
2023-04-21T16:41:33.977Z,11.70
2023-04-21T16:42:56.031Z,11.60
2023-04-21T16:44:18.099Z,11.60
2023-04-21T16:45:40.245Z,11.50
2023-04-21T16:47:02.595Z,11.50
2023-04-21T16:48:24.798Z,11.50
2023-04-21T16:49:46.960Z,11.50
2023-04-21T16:51:09.137Z,11.50
2023-04-21T16:52:31.347Z,11.50
2023-04-21T16:53:54.606Z,11.40
2023-04-21T16:55:16.828Z,11.40
2023-04-21T16:56:39.219Z,11.40
2023-04-21T16:58:01.269Z,11.30
2023-04-21T16:59:24.480Z,11.30
2023-04-21T17:00:46.612Z,11.30
2023-04-21T17:02:09.018Z,11.30
2023-04-21T17:03:31.384Z,11.30
2023-04-21T17:04:53.747Z,11.30
2023-04-21T17:06:20.734Z,11.30
2023-04-21T17:07:44.529Z,11.20
2023-04-21T17:09:06.635Z,11.20
2023-04-21T17:10:28.702Z,11.20
2023-04-21T17:11:50.733Z,11.20
2023-04-21T17:13:12.809Z,11.20
2023-04-21T17:14:35.551Z,11.20
2023-04-21T17:15:58.262Z,11.10
2023-04-21T17:17:20.397Z,11.10
2023-04-21T17:18:42.581Z,11.10
2023-04-21T17:20:05.088Z,11.00
2023-04-21T17:21:29.058Z,11.00
2023-04-21T17:22:51.211Z,11.00
2023-04-21T17:24:13.278Z,10.90
2023-04-21T17:25:38.021Z,10.90
2023-04-21T17:27:00.925Z,10.80
2023-04-21T17:28:23.017Z,10.80
2023-04-21T17:29:45.045Z,10.70
2023-04-21T17:31:14.596Z,10.70
2023-04-21T17:32:37.916Z,10.70
2023-04-21T17:34:00.149Z,10.60
2023-04-21T17:35:22.188Z,10.60
2023-04-21T17:36:44.681Z,10.60
2023-04-21T17:38:06.759Z,10.50
2023-04-21T17:39:28.782Z,10.50
2023-04-21T17:40:51.350Z,10.50
2023-04-21T17:42:13.398Z,10.40
2023-04-21T17:43:35.510Z,10.40
2023-04-21T17:44:57.595Z,10.40
2023-04-21T17:46:19.689Z,10.40
2023-04-21T17:47:42.209Z,10.40
2023-04-21T17:49:04.267Z,10.40
2023-04-21T17:50:27.523Z,10.40
2023-04-21T17:51:49.613Z,10.40
2023-04-21T17:53:11.658Z,10.30
2023-04-21T17:54:33.814Z,10.30
2023-04-21T17:55:56.502Z,10.30
2023-04-21T17:57:18.591Z,10.30
2023-04-21T17:58:42.344Z,10.20
2023-04-21T18:00:07.789Z,10.10
2023-04-21T18:01:30.241Z,10.00
2023-04-21T18:02:52.467Z,9.90
2023-04-21T18:04:16.549Z,9.90
2023-04-21T18:05:39.688Z,9.80
2023-04-21T18:07:02.562Z,9.80
2023-04-21T18:08:25.141Z,9.70
2023-04-21T18:09:48.865Z,9.70